sensor_id;sensor_type;location;lat;lon;timestamp;P1;durP1;ratioP1;P2;durP2;ratioP2
64282;SDS011;50497;50.720;-2.084;2023-02-15T00:00:16;71.50;;;31.73;;
64282;SDS011;50497;50.720;-2.084;2023-02-15T00:02:48;68.70;;;31.25;;
64282;SDS011;50497;50.720;-2.084;2023-02-15T00:05:24;72.90;;;32.85;;
64282;SDS011;50497;50.720;-2.084;2023-02-15T00:08:00;68.85;;;31.55;;
64282;SDS011;50497;50.720;-2.084;2023-02-15T00:10:35;75.60;;;31.77;;
64282;SDS011;50497;50.720;-2.084;2023-02-15T00:13:09;72.50;;;31.15;;
64282;SDS011;50497;50.720;-2.084;2023-02-15T00:15:35;65.18;;;29.02;;
64282;SDS011;50497;50.720;-2.084;2023-02-15T00:18:13;69.63;;;29.58;;
64282;SDS011;50497;50.720;-2.084;2023-02-15T00:20:46;67.45;;;31.15;;
64282;SDS011;50497;50.720;-2.084;2023-02-15T00:23:14;76.30;;;31.95;;
64282;SDS011;50497;50.720;-2.084;2023-02-15T00:25:51;73.32;;;30.08;;
64282;SDS011;50497;50.720;-2.084;2023-02-15T00:28:20;75.47;;;33.53;;
64282;SDS011;50497;50.720;-2.084;2023-02-15T00:30:53;80.97;;;34.15;;
64282;SDS011;50497;50.720;-2.084;2023-02-15T00:33:25;75.55;;;32.08;;
64282;SDS011;50497;50.720;-2.084;2023-02-15T00:36:04;76.82;;;33.80;;
64282;SDS011;50497;50.720;-2.084;2023-02-15T00:38:37;76.95;;;34.25;;
64282;SDS011;50497;50.720;-2.084;2023-02-15T00:41:09;75.88;;;33.38;;
64282;SDS011;50497;50.720;-2.084;2023-02-15T00:43:42;76.93;;;34.10;;
64282;SDS011;50497;50.720;-2.084;2023-02-15T00:46:11;80.15;;;33.75;;
64282;SDS011;50497;50.720;-2.084;2023-02-15T00:48:51;82.47;;;32.55;;
64282;SDS011;50497;50.720;-2.084;2023-02-15T00:51:19;77.47;;;32.63;;
64282;SDS011;50497;50.720;-2.084;2023-02-15T00:53:50;82.32;;;33.92;;
64282;SDS011;50497;50.720;-2.084;2023-02-15T00:56:19;81.40;;;34.72;;
64282;SDS011;50497;50.720;-2.084;2023-02-15T00:58:48;76.38;;;32.95;;
64282;SDS011;50497;50.720;-2.084;2023-02-15T01:01:18;85.43;;;33.70;;
64282;SDS011;50497;50.720;-2.084;2023-02-15T01:03:45;82.10;;;33.50;;
64282;SDS011;50497;50.720;-2.084;2023-02-15T01:06:16;79.82;;;33.38;;
64282;SDS011;50497;50.720;-2.084;2023-02-15T01:08:46;89.93;;;35.63;;
64282;SDS011;50497;50.720;-2.084;2023-02-15T01:11:19;80.97;;;33.00;;
64282;SDS011;50497;50.720;-2.084;2023-02-15T01:13:49;90.85;;;34.58;;
64282;SDS011;50497;50.720;-2.084;2023-02-15T01:16:26;90.57;;;35.67;;
64282;SDS011;50497;50.720;-2.084;2023-02-15T01:18:56;95.07;;;36.05;;
64282;SDS011;50497;50.720;-2.084;2023-02-15T01:21:27;90.47;;;35.55;;
64282;SDS011;50497;50.720;-2.084;2023-02-15T01:23:57;82.78;;;32.72;;
64282;SDS011;50497;50.720;-2.084;2023-02-15T01:26:24;83.10;;;33.95;;
64282;SDS011;50497;50.720;-2.084;2023-02-15T01:28:53;82.65;;;33.33;;
64282;SDS011;50497;50.720;-2.084;2023-02-15T01:31:25;74.38;;;31.15;;
64282;SDS011;50497;50.720;-2.084;2023-02-15T01:33:51;83.97;;;32.00;;
64282;SDS011;50497;50.720;-2.084;2023-02-15T01:36:23;73.47;;;31.20;;
64282;SDS011;50497;50.720;-2.084;2023-02-15T01:38:56;78.03;;;32.63;;
64282;SDS011;50497;50.720;-2.084;2023-02-15T01:41:26;73.68;;;30.60;;
64282;SDS011;50497;50.720;-2.084;2023-02-15T01:43:59;70.97;;;30.10;;
64282;SDS011;50497;50.720;-2.084;2023-02-15T01:46:43;71.22;;;31.10;;
64282;SDS011;50497;50.720;-2.084;2023-02-15T01:49:20;78.18;;;30.55;;
64282;SDS011;50497;50.720;-2.084;2023-02-15T01:51:55;70.32;;;29.75;;
64282;SDS011;50497;50.720;-2.084;2023-02-15T01:54:22;73.50;;;30.55;;
64282;SDS011;50497;50.720;-2.084;2023-02-15T01:56:58;72.88;;;29.52;;
64282;SDS011;50497;50.720;-2.084;2023-02-15T01:59:27;77.18;;;31.55;;
64282;SDS011;50497;50.720;-2.084;2023-02-15T02:02:02;76.65;;;32.28;;
64282;SDS011;50497;50.720;-2.084;2023-02-15T02:04:35;81.22;;;32.38;;
64282;SDS011;50497;50.720;-2.084;2023-02-15T02:07:14;80.32;;;32.85;;
64282;SDS011;50497;50.720;-2.084;2023-02-15T02:09:46;78.18;;;32.05;;
64282;SDS011;50497;50.720;-2.084;2023-02-15T02:12:16;83.78;;;33.78;;
64282;SDS011;50497;50.720;-2.084;2023-02-15T02:14:43;75.05;;;32.13;;
64282;SDS011;50497;50.720;-2.084;2023-02-15T02:17:20;75.60;;;31.60;;
64282;SDS011;50497;50.720;-2.084;2023-02-15T02:31:35;88.53;;;34.17;;
64282;SDS011;50497;50.720;-2.084;2023-02-15T02:34:29;93.68;;;36.70;;
64282;SDS011;50497;50.720;-2.084;2023-02-15T02:37:14;86.22;;;34.72;;
64282;SDS011;50497;50.720;-2.084;2023-02-15T02:39:49;89.53;;;34.63;;
64282;SDS011;50497;50.720;-2.084;2023-02-15T02:45:31;81.30;;;33.42;;
64282;SDS011;50497;50.720;-2.084;2023-02-15T02:48:23;86.03;;;33.55;;
64282;SDS011;50497;50.720;-2.084;2023-02-15T02:50:59;95.30;;;34.42;;
64282;SDS011;50497;50.720;-2.084;2023-02-15T02:53:32;88.68;;;36.10;;
64282;SDS011;50497;50.720;-2.084;2023-02-15T02:56:06;90.82;;;37.08;;
64282;SDS011;50497;50.720;-2.084;2023-02-15T03:01:18;94.07;;;37.65;;
64282;SDS011;50497;50.720;-2.084;2023-02-15T03:04:15;98.75;;;37.35;;
64282;SDS011;50497;50.720;-2.084;2023-02-15T03:06:46;92.65;;;34.25;;
64282;SDS011;50497;50.720;-2.084;2023-02-15T03:09:26;86.68;;;35.45;;
64282;SDS011;50497;50.720;-2.084;2023-02-15T03:12:00;89.50;;;33.55;;
64282;SDS011;50497;50.720;-2.084;2023-02-15T03:14:36;81.28;;;34.22;;
64282;SDS011;50497;50.720;-2.084;2023-02-15T03:17:06;91.53;;;35.85;;
64282;SDS011;50497;50.720;-2.084;2023-02-15T03:19:40;91.65;;;35.50;;
64282;SDS011;50497;50.720;-2.084;2023-02-15T03:22:21;91.55;;;35.42;;
64282;SDS011;50497;50.720;-2.084;2023-02-15T03:25:15;88.93;;;35.20;;
64282;SDS011;50497;50.720;-2.084;2023-02-15T03:27:47;94.00;;;34.05;;
64282;SDS011;50497;50.720;-2.084;2023-02-15T03:30:38;99.63;;;36.53;;
64282;SDS011;50497;50.720;-2.084;2023-02-15T03:33:13;94.95;;;36.15;;
64282;SDS011;50497;50.720;-2.084;2023-02-15T03:35:49;93.40;;;37.00;;
64282;SDS011;50497;50.720;-2.084;2023-02-15T03:38:38;91.38;;;35.88;;
64282;SDS011;50497;50.720;-2.084;2023-02-15T03:41:25;100.47;;;36.92;;
64282;SDS011;50497;50.720;-2.084;2023-02-15T03:43:59;103.13;;;36.97;;
64282;SDS011;50497;50.720;-2.084;2023-02-15T03:49:51;78.90;;;31.50;;
64282;SDS011;50497;50.720;-2.084;2023-02-15T03:52:21;85.95;;;32.85;;
64282;SDS011;50497;50.720;-2.084;2023-02-15T03:54:54;85.05;;;33.00;;
64282;SDS011;50497;50.720;-2.084;2023-02-15T03:57:28;88.70;;;31.95;;
64282;SDS011;50497;50.720;-2.084;2023-02-15T04:00:19;86.00;;;33.10;;
64282;SDS011;50497;50.720;-2.084;2023-02-15T04:05:41;97.43;;;33.70;;
64282;SDS011;50497;50.720;-2.084;2023-02-15T04:08:13;86.25;;;32.13;;
64282;SDS011;50497;50.720;-2.084;2023-02-15T04:10:41;82.25;;;32.13;;
64282;SDS011;50497;50.720;-2.084;2023-02-15T04:13:24;73.35;;;29.88;;
64282;SDS011;50497;50.720;-2.084;2023-02-15T04:16:00;80.28;;;31.10;;
64282;SDS011;50497;50.720;-2.084;2023-02-15T04:18:33;71.20;;;27.65;;
64282;SDS011;50497;50.720;-2.084;2023-02-15T04:21:26;78.57;;;31.33;;
64282;SDS011;50497;50.720;-2.084;2023-02-15T04:24:18;75.15;;;29.63;;
64282;SDS011;50497;50.720;-2.084;2023-02-15T04:27:03;84.15;;;31.48;;
64282;SDS011;50497;50.720;-2.084;2023-02-15T04:29:30;80.13;;;31.85;;
64282;SDS011;50497;50.720;-2.084;2023-02-15T04:32:00;79.88;;;31.30;;
64282;SDS011;50497;50.720;-2.084;2023-02-15T04:34:35;79.05;;;29.95;;
64282;SDS011;50497;50.720;-2.084;2023-02-15T04:37:01;81.22;;;32.30;;
64282;SDS011;50497;50.720;-2.084;2023-02-15T04:39:33;82.97;;;32.88;;
64282;SDS011;50497;50.720;-2.084;2023-02-15T04:41:59;82.72;;;32.92;;
64282;SDS011;50497;50.720;-2.084;2023-02-15T04:44:32;78.50;;;32.33;;
64282;SDS011;50497;50.720;-2.084;2023-02-15T04:47:01;82.82;;;33.03;;
64282;SDS011;50497;50.720;-2.084;2023-02-15T04:49:36;84.47;;;31.85;;
64282;SDS011;50497;50.720;-2.084;2023-02-15T04:52:12;83.43;;;33.67;;
64282;SDS011;50497;50.720;-2.084;2023-02-15T04:54:48;79.60;;;33.25;;
64282;SDS011;50497;50.720;-2.084;2023-02-15T04:57:20;83.88;;;33.30;;
64282;SDS011;50497;50.720;-2.084;2023-02-15T05:00:00;76.88;;;30.85;;
64282;SDS011;50497;50.720;-2.084;2023-02-15T05:02:29;75.22;;;30.27;;
64282;SDS011;50497;50.720;-2.084;2023-02-15T05:05:01;81.70;;;32.33;;
64282;SDS011;50497;50.720;-2.084;2023-02-15T05:07:33;77.05;;;31.85;;
64282;SDS011;50497;50.720;-2.084;2023-02-15T05:10:09;75.93;;;30.73;;
64282;SDS011;50497;50.720;-2.084;2023-02-15T05:12:37;75.38;;;31.25;;
64282;SDS011;50497;50.720;-2.084;2023-02-15T05:15:07;82.45;;;31.27;;
64282;SDS011;50497;50.720;-2.084;2023-02-15T05:17:41;81.05;;;32.20;;
64282;SDS011;50497;50.720;-2.084;2023-02-15T05:20:10;78.53;;;31.15;;
64282;SDS011;50497;50.720;-2.084;2023-02-15T05:22:44;80.00;;;30.55;;
64282;SDS011;50497;50.720;-2.084;2023-02-15T05:25:13;79.43;;;33.35;;
64282;SDS011;50497;50.720;-2.084;2023-02-15T05:28:01;78.43;;;32.00;;
64282;SDS011;50497;50.720;-2.084;2023-02-15T05:30:49;79.43;;;33.17;;
64282;SDS011;50497;50.720;-2.084;2023-02-15T05:33:32;77.45;;;32.85;;
64282;SDS011;50497;50.720;-2.084;2023-02-15T05:35:58;83.38;;;33.75;;
64282;SDS011;50497;50.720;-2.084;2023-02-15T05:38:34;77.85;;;32.00;;
64282;SDS011;50497;50.720;-2.084;2023-02-15T05:41:06;80.50;;;33.55;;
64282;SDS011;50497;50.720;-2.084;2023-02-15T05:43:33;75.63;;;33.33;;
64282;SDS011;50497;50.720;-2.084;2023-02-15T05:46:04;80.32;;;33.47;;
64282;SDS011;50497;50.720;-2.084;2023-02-15T05:48:30;84.78;;;34.00;;
64282;SDS011;50497;50.720;-2.084;2023-02-15T05:50:59;78.57;;;33.65;;
64282;SDS011;50497;50.720;-2.084;2023-02-15T05:53:31;82.20;;;32.00;;
64282;SDS011;50497;50.720;-2.084;2023-02-15T05:56:01;78.60;;;33.05;;
64282;SDS011;50497;50.720;-2.084;2023-02-15T05:58:37;82.35;;;33.05;;
64282;SDS011;50497;50.720;-2.084;2023-02-15T06:01:10;71.80;;;31.38;;
64282;SDS011;50497;50.720;-2.084;2023-02-15T06:03:39;79.20;;;32.80;;
64282;SDS011;50497;50.720;-2.084;2023-02-15T06:06:05;83.07;;;33.60;;
64282;SDS011;50497;50.720;-2.084;2023-02-15T06:08:31;79.72;;;32.83;;
64282;SDS011;50497;50.720;-2.084;2023-02-15T06:10:59;86.90;;;33.60;;
64282;SDS011;50497;50.720;-2.084;2023-02-15T06:13:25;79.15;;;33.92;;
64282;SDS011;50497;50.720;-2.084;2023-02-15T06:16:00;76.22;;;32.75;;
64282;SDS011;50497;50.720;-2.084;2023-02-15T06:18:26;81.80;;;34.13;;
64282;SDS011;50497;50.720;-2.084;2023-02-15T06:20:55;82.45;;;33.08;;
64282;SDS011;50497;50.720;-2.084;2023-02-15T06:23:25;87.25;;;34.33;;
64282;SDS011;50497;50.720;-2.084;2023-02-15T06:25:52;78.97;;;32.78;;
64282;SDS011;50497;50.720;-2.084;2023-02-15T06:28:18;85.35;;;34.95;;
64282;SDS011;50497;50.720;-2.084;2023-02-15T06:30:47;77.78;;;33.15;;
64282;SDS011;50497;50.720;-2.084;2023-02-15T06:33:13;79.20;;;32.33;;
64282;SDS011;50497;50.720;-2.084;2023-02-15T06:35:45;80.13;;;32.28;;
64282;SDS011;50497;50.720;-2.084;2023-02-15T06:38:11;85.35;;;31.42;;
64282;SDS011;50497;50.720;-2.084;2023-02-15T06:40:39;84.78;;;33.70;;
64282;SDS011;50497;50.720;-2.084;2023-02-15T06:43:08;84.50;;;33.45;;
64282;SDS011;50497;50.720;-2.084;2023-02-15T06:45:38;78.90;;;33.80;;
64282;SDS011;50497;50.720;-2.084;2023-02-15T06:48:06;87.72;;;31.73;;
64282;SDS011;50497;50.720;-2.084;2023-02-15T06:50:33;87.40;;;32.75;;
64282;SDS011;50497;50.720;-2.084;2023-02-15T06:52:59;83.50;;;31.00;;
64282;SDS011;50497;50.720;-2.084;2023-02-15T06:55:26;88.47;;;33.60;;
64282;SDS011;50497;50.720;-2.084;2023-02-15T06:57:52;81.18;;;31.65;;
64282;SDS011;50497;50.720;-2.084;2023-02-15T07:00:22;81.00;;;33.40;;
64282;SDS011;50497;50.720;-2.084;2023-02-15T07:02:57;81.35;;;31.65;;
64282;SDS011;50497;50.720;-2.084;2023-02-15T07:05:25;86.78;;;34.13;;
64282;SDS011;50497;50.720;-2.084;2023-02-15T07:08:00;83.70;;;33.08;;
64282;SDS011;50497;50.720;-2.084;2023-02-15T07:10:26;86.72;;;32.17;;
64282;SDS011;50497;50.720;-2.084;2023-02-15T07:12:53;87.45;;;33.17;;
64282;SDS011;50497;50.720;-2.084;2023-02-15T07:15:20;91.78;;;34.03;;
64282;SDS011;50497;50.720;-2.084;2023-02-15T07:17:46;84.63;;;32.58;;
64282;SDS011;50497;50.720;-2.084;2023-02-15T07:20:20;86.30;;;30.45;;
64282;SDS011;50497;50.720;-2.084;2023-02-15T07:22:48;85.85;;;32.40;;
64282;SDS011;50497;50.720;-2.084;2023-02-15T07:25:15;80.22;;;31.20;;
64282;SDS011;50497;50.720;-2.084;2023-02-15T07:27:41;83.50;;;33.28;;
64282;SDS011;50497;50.720;-2.084;2023-02-15T07:30:12;82.07;;;31.00;;
64282;SDS011;50497;50.720;-2.084;2023-02-15T07:32:42;77.35;;;30.95;;
64282;SDS011;50497;50.720;-2.084;2023-02-15T07:35:29;80.85;;;31.95;;
64282;SDS011;50497;50.720;-2.084;2023-02-15T07:38:01;79.25;;;31.63;;
64282;SDS011;50497;50.720;-2.084;2023-02-15T07:40:26;92.63;;;34.80;;
64282;SDS011;50497;50.720;-2.084;2023-02-15T07:42:59;85.28;;;32.20;;
64282;SDS011;50497;50.720;-2.084;2023-02-15T07:45:29;77.07;;;30.55;;
64282;SDS011;50497;50.720;-2.084;2023-02-15T07:47:55;80.32;;;31.02;;
64282;SDS011;50497;50.720;-2.084;2023-02-15T07:50:28;81.22;;;31.85;;
64282;SDS011;50497;50.720;-2.084;2023-02-15T07:53:00;80.28;;;31.23;;
64282;SDS011;50497;50.720;-2.084;2023-02-15T07:55:26;91.18;;;32.30;;
64282;SDS011;50497;50.720;-2.084;2023-02-15T07:57:56;82.88;;;32.50;;
64282;SDS011;50497;50.720;-2.084;2023-02-15T08:00:28;78.93;;;31.40;;
64282;SDS011;50497;50.720;-2.084;2023-02-15T08:03:18;80.75;;;32.70;;
64282;SDS011;50497;50.720;-2.084;2023-02-15T08:05:44;80.07;;;32.42;;
64282;SDS011;50497;50.720;-2.084;2023-02-15T08:08:12;83.45;;;32.53;;
64282;SDS011;50497;50.720;-2.084;2023-02-15T08:11:01;78.82;;;31.85;;
64282;SDS011;50497;50.720;-2.084;2023-02-15T08:13:49;73.45;;;30.52;;
64282;SDS011;50497;50.720;-2.084;2023-02-15T08:16:24;78.85;;;31.00;;
64282;SDS011;50497;50.720;-2.084;2023-02-15T08:18:58;74.78;;;29.13;;
64282;SDS011;50497;50.720;-2.084;2023-02-15T08:21:28;76.85;;;31.42;;
64282;SDS011;50497;50.720;-2.084;2023-02-15T08:24:00;72.10;;;30.02;;
64282;SDS011;50497;50.720;-2.084;2023-02-15T08:26:32;77.18;;;32.30;;
64282;SDS011;50497;50.720;-2.084;2023-02-15T08:28:58;71.88;;;30.55;;
64282;SDS011;50497;50.720;-2.084;2023-02-15T08:31:29;76.18;;;32.35;;
64282;SDS011;50497;50.720;-2.084;2023-02-15T08:33:56;78.43;;;32.10;;
64282;SDS011;50497;50.720;-2.084;2023-02-15T08:36:26;82.63;;;31.05;;
64282;SDS011;50497;50.720;-2.084;2023-02-15T08:39:04;82.53;;;32.38;;
64282;SDS011;50497;50.720;-2.084;2023-02-15T08:41:38;79.38;;;32.20;;
64282;SDS011;50497;50.720;-2.084;2023-02-15T08:44:07;75.65;;;30.00;;
64282;SDS011;50497;50.720;-2.084;2023-02-15T08:46:49;74.85;;;31.25;;
64282;SDS011;50497;50.720;-2.084;2023-02-15T08:49:16;75.20;;;31.83;;
64282;SDS011;50497;50.720;-2.084;2023-02-15T08:51:46;77.13;;;34.42;;
64282;SDS011;50497;50.720;-2.084;2023-02-15T08:54:14;77.65;;;31.58;;
64282;SDS011;50497;50.720;-2.084;2023-02-15T08:56:47;74.85;;;32.60;;
64282;SDS011;50497;50.720;-2.084;2023-02-15T08:59:20;73.60;;;30.52;;
64282;SDS011;50497;50.720;-2.084;2023-02-15T09:01:48;77.22;;;32.42;;
64282;SDS011;50497;50.720;-2.084;2023-02-15T09:04:15;75.30;;;32.58;;
64282;SDS011;50497;50.720;-2.084;2023-02-15T09:06:46;77.47;;;32.92;;
64282;SDS011;50497;50.720;-2.084;2023-02-15T09:09:13;71.68;;;30.67;;
64282;SDS011;50497;50.720;-2.084;2023-02-15T09:11:45;68.90;;;30.55;;
64282;SDS011;50497;50.720;-2.084;2023-02-15T09:14:19;75.57;;;33.38;;
64282;SDS011;50497;50.720;-2.084;2023-02-15T09:16:46;66.80;;;30.08;;
64282;SDS011;50497;50.720;-2.084;2023-02-15T09:19:20;72.65;;;32.33;;
64282;SDS011;50497;50.720;-2.084;2023-02-15T09:21:51;70.60;;;33.20;;
64282;SDS011;50497;50.720;-2.084;2023-02-15T09:24:20;64.03;;;30.02;;
64282;SDS011;50497;50.720;-2.084;2023-02-15T09:26:49;61.63;;;26.70;;
64282;SDS011;50497;50.720;-2.084;2023-02-15T09:29:18;57.90;;;27.85;;
64282;SDS011;50497;50.720;-2.084;2023-02-15T09:31:48;62.40;;;26.60;;
64282;SDS011;50497;50.720;-2.084;2023-02-15T09:34:20;58.38;;;28.45;;
64282;SDS011;50497;50.720;-2.084;2023-02-15T09:36:48;51.70;;;25.33;;
64282;SDS011;50497;50.720;-2.084;2023-02-15T09:50:25;39.78;;;20.48;;
64282;SDS011;50497;50.720;-2.084;2023-02-15T10:06:05;34.10;;;16.35;;
64282;SDS011;50497;50.720;-2.084;2023-02-15T10:28:35;24.73;;;13.55;;
64282;SDS011;50497;50.720;-2.084;2023-02-15T10:34:25;26.60;;;13.30;;
64282;SDS011;50497;50.720;-2.084;2023-02-15T11:04:53;22.73;;;12.40;;
64282;SDS011;50497;50.720;-2.084;2023-02-15T11:07:54;20.85;;;12.00;;
64282;SDS011;50497;50.720;-2.084;2023-02-15T11:10:36;23.85;;;12.82;;
64282;SDS011;50497;50.720;-2.084;2023-02-15T11:13:14;22.77;;;11.45;;
64282;SDS011;50497;50.720;-2.084;2023-02-15T11:23:57;20.65;;;12.07;;
64282;SDS011;50497;50.720;-2.084;2023-02-15T11:26:30;20.77;;;12.27;;
64282;SDS011;50497;50.720;-2.084;2023-02-15T11:31:43;23.73;;;13.13;;
64282;SDS011;50497;50.720;-2.084;2023-02-15T11:34:18;22.02;;;12.00;;
64282;SDS011;50497;50.720;-2.084;2023-02-15T11:37:04;21.65;;;12.80;;
64282;SDS011;50497;50.720;-2.084;2023-02-15T11:39:38;21.05;;;11.50;;
64282;SDS011;50497;50.720;-2.084;2023-02-15T11:42:15;21.13;;;11.80;;
64282;SDS011;50497;50.720;-2.084;2023-02-15T11:47:58;21.70;;;13.18;;
64282;SDS011;50497;50.720;-2.084;2023-02-15T11:50:32;23.15;;;12.32;;
64282;SDS011;50497;50.720;-2.084;2023-02-15T11:53:06;20.90;;;11.98;;
64282;SDS011;50497;50.720;-2.084;2023-02-15T11:58:52;21.85;;;11.13;;
64282;SDS011;50497;50.720;-2.084;2023-02-15T12:03:48;18.90;;;11.00;;
64282;SDS011;50497;50.720;-2.084;2023-02-15T12:06:53;20.25;;;11.80;;
64282;SDS011;50497;50.720;-2.084;2023-02-15T12:12:29;18.83;;;11.03;;
64282;SDS011;50497;50.720;-2.084;2023-02-15T12:15:02;21.05;;;11.82;;
64282;SDS011;50497;50.720;-2.084;2023-02-15T12:23:06;21.73;;;12.02;;
64282;SDS011;50497;50.720;-2.084;2023-02-15T12:28:34;20.15;;;11.65;;
64282;SDS011;50497;50.720;-2.084;2023-02-15T12:31:07;18.58;;;10.55;;
64282;SDS011;50497;50.720;-2.084;2023-02-15T12:34:17;20.13;;;11.18;;
64282;SDS011;50497;50.720;-2.084;2023-02-15T12:36:53;21.95;;;11.60;;
64282;SDS011;50497;50.720;-2.084;2023-02-15T12:39:30;19.95;;;10.70;;
64282;SDS011;50497;50.720;-2.084;2023-02-15T12:42:04;21.85;;;11.63;;
64282;SDS011;50497;50.720;-2.084;2023-02-15T12:45:01;19.55;;;11.75;;
64282;SDS011;50497;50.720;-2.084;2023-02-15T12:47:53;19.30;;;11.52;;
64282;SDS011;50497;50.720;-2.084;2023-02-15T12:50:45;19.38;;;11.00;;
64282;SDS011;50497;50.720;-2.084;2023-02-15T12:53:17;20.70;;;10.73;;
64282;SDS011;50497;50.720;-2.084;2023-02-15T12:56:03;21.38;;;10.85;;
64282;SDS011;50497;50.720;-2.084;2023-02-15T12:58:43;19.98;;;11.10;;
64282;SDS011;50497;50.720;-2.084;2023-02-15T13:01:15;20.98;;;11.38;;
64282;SDS011;50497;50.720;-2.084;2023-02-15T13:04:00;22.40;;;10.98;;
64282;SDS011;50497;50.720;-2.084;2023-02-15T13:06:33;23.33;;;11.50;;
64282;SDS011;50497;50.720;-2.084;2023-02-15T13:09:06;19.15;;;11.10;;
64282;SDS011;50497;50.720;-2.084;2023-02-15T13:11:44;18.85;;;10.45;;
64282;SDS011;50497;50.720;-2.084;2023-02-15T13:14:31;18.00;;;10.45;;
64282;SDS011;50497;50.720;-2.084;2023-02-15T13:17:04;21.33;;;10.15;;
64282;SDS011;50497;50.720;-2.084;2023-02-15T13:19:33;17.75;;;9.35;;
64282;SDS011;50497;50.720;-2.084;2023-02-15T13:22:20;20.02;;;10.65;;
64282;SDS011;50497;50.720;-2.084;2023-02-15T13:25:04;22.00;;;11.93;;
64282;SDS011;50497;50.720;-2.084;2023-02-15T13:27:41;20.55;;;10.88;;
64282;SDS011;50497;50.720;-2.084;2023-02-15T13:30:22;21.80;;;11.82;;
64282;SDS011;50497;50.720;-2.084;2023-02-15T13:32:54;22.70;;;10.77;;
64282;SDS011;50497;50.720;-2.084;2023-02-15T13:35:23;17.48;;;9.80;;
64282;SDS011;50497;50.720;-2.084;2023-02-15T13:38:06;22.60;;;9.80;;
64282;SDS011;50497;50.720;-2.084;2023-02-15T13:41:12;19.33;;;9.27;;
64282;SDS011;50497;50.720;-2.084;2023-02-15T13:46:21;18.30;;;9.05;;
64282;SDS011;50497;50.720;-2.084;2023-02-15T13:49:09;20.13;;;9.73;;
64282;SDS011;50497;50.720;-2.084;2023-02-15T13:52:01;18.25;;;9.30;;
64282;SDS011;50497;50.720;-2.084;2023-02-15T14:04:21;17.70;;;9.45;;
64282;SDS011;50497;50.720;-2.084;2023-02-15T14:23:52;17.73;;;8.20;;
64282;SDS011;50497;50.720;-2.084;2023-02-15T14:30:02;18.40;;;9.23;;
64282;SDS011;50497;50.720;-2.084;2023-02-15T14:32:49;19.05;;;8.80;;
64282;SDS011;50497;50.720;-2.084;2023-02-15T14:35:19;18.77;;;9.57;;
64282;SDS011;50497;50.720;-2.084;2023-02-15T14:49:21;18.33;;;9.02;;
64282;SDS011;50497;50.720;-2.084;2023-02-15T14:51:55;16.77;;;8.90;;
64282;SDS011;50497;50.720;-2.084;2023-02-15T15:10:34;21.52;;;10.05;;
64282;SDS011;50497;50.720;-2.084;2023-02-15T15:18:50;21.08;;;9.27;;
64282;SDS011;50497;50.720;-2.084;2023-02-15T15:47:01;21.45;;;8.40;;
64282;SDS011;50497;50.720;-2.084;2023-02-15T15:49:43;22.80;;;9.18;;
64282;SDS011;50497;50.720;-2.084;2023-02-15T15:52:19;19.65;;;8.68;;
64282;SDS011;50497;50.720;-2.084;2023-02-15T15:54:53;21.13;;;8.70;;
64282;SDS011;50497;50.720;-2.084;2023-02-15T15:57:29;19.70;;;8.57;;
64282;SDS011;50497;50.720;-2.084;2023-02-15T16:00:03;18.52;;;8.55;;
64282;SDS011;50497;50.720;-2.084;2023-02-15T16:02:55;15.73;;;7.80;;
64282;SDS011;50497;50.720;-2.084;2023-02-15T16:05:21;18.40;;;8.88;;
64282;SDS011;50497;50.720;-2.084;2023-02-15T16:07:50;21.48;;;8.85;;
64282;SDS011;50497;50.720;-2.084;2023-02-15T16:12:47;22.85;;;9.35;;
64282;SDS011;50497;50.720;-2.084;2023-02-15T16:15:19;24.88;;;9.52;;
64282;SDS011;50497;50.720;-2.084;2023-02-15T16:18:01;20.45;;;8.90;;
64282;SDS011;50497;50.720;-2.084;2023-02-15T16:20:35;19.75;;;8.40;;
64282;SDS011;50497;50.720;-2.084;2023-02-15T16:28:11;17.80;;;8.07;;
64282;SDS011;50497;50.720;-2.084;2023-02-15T16:30:38;19.55;;;8.68;;
64282;SDS011;50497;50.720;-2.084;2023-02-15T16:35:35;20.38;;;9.23;;
64282;SDS011;50497;50.720;-2.084;2023-02-15T16:38:30;24.10;;;9.27;;
64282;SDS011;50497;50.720;-2.084;2023-02-15T16:41:14;20.38;;;8.57;;
64282;SDS011;50497;50.720;-2.084;2023-02-15T16:43:52;27.73;;;10.88;;
64282;SDS011;50497;50.720;-2.084;2023-02-15T16:48:54;32.38;;;13.43;;
64282;SDS011;50497;50.720;-2.084;2023-02-15T16:51:30;27.15;;;10.25;;
64282;SDS011;50497;50.720;-2.084;2023-02-15T16:54:00;39.00;;;14.45;;
64282;SDS011;50497;50.720;-2.084;2023-02-15T16:56:33;39.17;;;15.73;;
64282;SDS011;50497;50.720;-2.084;2023-02-15T16:59:28;34.25;;;12.77;;
64282;SDS011;50497;50.720;-2.084;2023-02-15T17:02:17;50.47;;;16.40;;
64282;SDS011;50497;50.720;-2.084;2023-02-15T17:07:41;44.08;;;14.10;;
64282;SDS011;50497;50.720;-2.084;2023-02-15T17:10:33;46.08;;;17.05;;
64282;SDS011;50497;50.720;-2.084;2023-02-15T17:13:16;40.08;;;15.65;;
64282;SDS011;50497;50.720;-2.084;2023-02-15T17:18:30;43.90;;;15.95;;
64282;SDS011;50497;50.720;-2.084;2023-02-15T17:21:11;43.70;;;16.40;;
64282;SDS011;50497;50.720;-2.084;2023-02-15T17:23:50;33.63;;;12.20;;
64282;SDS011;50497;50.720;-2.084;2023-02-15T17:26:36;57.72;;;21.58;;
64282;SDS011;50497;50.720;-2.084;2023-02-15T17:29:23;44.80;;;17.98;;
64282;SDS011;50497;50.720;-2.084;2023-02-15T17:31:55;38.08;;;14.85;;
64282;SDS011;50497;50.720;-2.084;2023-02-15T17:40:24;43.05;;;16.58;;
64282;SDS011;50497;50.720;-2.084;2023-02-15T17:43:00;41.10;;;18.27;;
64282;SDS011;50497;50.720;-2.084;2023-02-15T17:48:05;45.58;;;19.38;;
64282;SDS011;50497;50.720;-2.084;2023-02-15T17:53:04;45.47;;;18.17;;
64282;SDS011;50497;50.720;-2.084;2023-02-15T17:55:44;41.78;;;19.27;;
64282;SDS011;50497;50.720;-2.084;2023-02-15T17:58:14;50.13;;;17.13;;
64282;SDS011;50497;50.720;-2.084;2023-02-15T18:00:45;38.67;;;14.95;;
64282;SDS011;50497;50.720;-2.084;2023-02-15T18:06:29;40.38;;;15.10;;
64282;SDS011;50497;50.720;-2.084;2023-02-15T18:09:20;38.85;;;15.00;;
64282;SDS011;50497;50.720;-2.084;2023-02-15T18:14:54;44.78;;;20.13;;
64282;SDS011;50497;50.720;-2.084;2023-02-15T18:17:32;59.58;;;23.73;;
64282;SDS011;50497;50.720;-2.084;2023-02-15T18:22:45;50.78;;;23.65;;
64282;SDS011;50497;50.720;-2.084;2023-02-15T18:25:19;42.10;;;18.13;;
64282;SDS011;50497;50.720;-2.084;2023-02-15T18:27:50;47.85;;;18.30;;
64282;SDS011;50497;50.720;-2.084;2023-02-15T18:30:19;54.05;;;25.60;;
64282;SDS011;50497;50.720;-2.084;2023-02-15T18:32:51;48.33;;;20.83;;
64282;SDS011;50497;50.720;-2.084;2023-02-15T18:35:29;43.13;;;20.77;;
64282;SDS011;50497;50.720;-2.084;2023-02-15T18:37:57;53.33;;;25.55;;
64282;SDS011;50497;50.720;-2.084;2023-02-15T18:40:35;48.47;;;21.08;;
64282;SDS011;50497;50.720;-2.084;2023-02-15T18:43:01;41.17;;;16.10;;
64282;SDS011;50497;50.720;-2.084;2023-02-15T18:45:31;44.08;;;18.48;;
64282;SDS011;50497;50.720;-2.084;2023-02-15T18:47:57;39.67;;;17.92;;
64282;SDS011;50497;50.720;-2.084;2023-02-15T18:50:23;37.78;;;14.20;;
64282;SDS011;50497;50.720;-2.084;2023-02-15T18:52:59;42.55;;;14.77;;
64282;SDS011;50497;50.720;-2.084;2023-02-15T18:55:30;40.95;;;20.00;;
64282;SDS011;50497;50.720;-2.084;2023-02-15T18:57:57;33.17;;;13.20;;
64282;SDS011;50497;50.720;-2.084;2023-02-15T19:00:27;35.92;;;12.93;;
64282;SDS011;50497;50.720;-2.084;2023-02-15T19:02:59;32.65;;;12.95;;
64282;SDS011;50497;50.720;-2.084;2023-02-15T19:05:30;32.25;;;12.05;;
64282;SDS011;50497;50.720;-2.084;2023-02-15T19:08:01;30.73;;;11.30;;
64282;SDS011;50497;50.720;-2.084;2023-02-15T19:10:30;39.55;;;14.10;;